Latest Weather Observations for Scone Airport

IDN60801

Issued at 9:35 am EDT Wednesday 26 November 2014 (issued every 30 minutes, with the page automatically refreshed every 10 minutes)

About weather observations | Map of weather stations | Latest weather observations for NSW | Other Formats
Station Details ID: 061363 Name: SCONE AIRPORT AWS Lat: -32.03 Lon: 150.83 Height: 221.4 m
Data from the previous 72 hours. | See also: Recent months at Scone Airport
Date/Time
EDT
Temp
°C
App
Temp
°C
Dew
Point
Rel
Hum
%
Delta-T
°C
Wind Press
QNH
hPa
Press
MSL
hPa
Rain
since 9 am
mm
Dir
 
Spd
km/h
Gust
km/h
Spd
kts
Gust
kts
26/09:30am 21.2 21.6 15.3 69 3.5 SSE 7 13 4 7 1018.2 1017.4 0.0
26/09:00am 20.3 20.3 15.1 72 3.1 SE 9 13 5 7 1018.3 1017.5 0.2
26/08:30am 19.5 19.7 14.7 74 2.8 SSE 7 13 4 7 1018.3 1017.5 0.2
26/08:00am 19.2 19.3 15.5 79 2.2 S 9 15 5 8 1018.2 1017.4 0.2
26/07:30am 18.5 18.4 15.0 80 2.1 S 9 13 5 7 1018.0 1017.2 0.2
26/07:00am 18.0 17.9 14.9 82 1.8 SSE 9 13 5 7 1018.1 1017.3 0.2
26/06:30am 17.8 18.1 15.1 84 1.6 SSE 7 9 4 5 1018.1 1017.3 0.2
26/06:00am 17.6 17.5 15.0 85 1.5 SSE 9 13 5 7 1018.0 1017.2 0.2
26/05:30am 17.6 17.5 15.0 85 1.5 SSE 9 13 5 7 1017.8 1017.0 0.2
26/05:00am 17.5 17.0 15.0 85 1.5 S 11 15 6 8 1017.5 1016.7 0.2
26/04:30am 17.5 16.7 15.0 85 1.5 S 13 17 7 9 1017.4 1016.6 0.2
26/04:00am 17.4 16.5 14.9 85 1.5 S 13 17 7 9 1017.4 1016.6 0.2
26/03:30am 17.4 16.2 15.0 86 1.4 S 15 20 8 11 1017.4 1016.6 0.2
26/03:00am 17.3 16.0 14.9 86 1.4 S 15 20 8 11 1017.5 1016.7 0.2
26/02:30am 17.2 16.3 14.8 86 1.4 S 13 19 7 10 1017.6 1016.8 0.2
26/02:00am 17.0 15.3 14.8 87 1.3 S 17 22 9 12 1017.8 1017.0 0.2
26/01:30am 17.1 15.8 14.7 86 1.4 S 15 20 8 11 1017.9 1017.1 0.2
26/01:00am 17.3 15.7 14.9 86 1.4 S 17 22 9 12 1018.1 1017.3 0.2
26/12:30am 17.4 16.5 14.9 85 1.5 S 13 17 7 9 1018.4 1017.6 0.2
26/12:00am 17.6 16.3 14.7 83 1.7 S 15 19 8 10 1018.5 1017.7 0.2
 
Date/Time
EDT
Temp
°C
App
Temp
°C
Dew
Point
Rel
Hum
%
Delta-T
°C
Wind Press
QNH
hPa
Press
MSL
hPa
Rain
since 9 am
mm
Dir
 
Spd
km/h
Gust
km/h
Spd
kts
Gust
kts
25/11:30pm 17.8 17.2 14.7 82 1.8 S 11 13 6 7 1018.6 1017.8 0.2
25/11:00pm 18.1 17.6 14.8 81 1.9 S 11 13 6 7 1018.3 1017.5 0.2
25/10:30pm 18.5 17.6 14.8 79 2.2 S 13 17 7 9 1018.4 1017.6 0.2
25/10:00pm 18.9 17.6 14.8 77 2.4 S 15 19 8 10 1018.0 1017.2 0.2
25/09:30pm 19.2 17.6 14.9 76 2.5 S 17 24 9 13 1017.8 1017.0 0.2
25/09:00pm 19.7 17.5 14.9 74 2.8 S 20 24 11 13 1017.3 1016.5 0.2
25/08:30pm 20.2 17.7 15.2 73 3.0 S 22 28 12 15 1017.0 1016.2 0.2
25/08:00pm 21.0 18.3 15.5 71 3.3 S 24 32 13 17 1016.5 1015.8 0.2
25/07:30pm 21.9 18.8 15.7 68 3.7 S 26 33 14 18 1016.0 1015.3 0.2
25/07:00pm 22.9 20.0 16.0 65 4.2 S 26 32 14 17 1015.5 1014.8 0.2
25/06:30pm 24.2 21.0 16.2 61 4.9 S 28 33 15 18 1014.9 1014.1 0.2
25/06:00pm 27.4 23.6 5.6 25 11.4 WSW 15 19 8 10 1014.3 1013.5 0.2
25/05:30pm 28.0 24.9 7.3 27 11.2 SW 13 17 7 9 1014.0 1013.2 0.2
25/05:00pm 28.1 24.6 7.4 27 11.2 W 15 20 8 11 1014.2 1013.4 0.2
25/04:30pm 28.6 25.4 9.8 31 10.6 W 17 22 9 12 1014.3 1013.5 0.2
25/04:00pm 29.1 26.5 10.7 32 10.6 W 15 20 8 11 1014.4 1013.6 0.2
25/03:30pm 28.5 25.5 12.0 36 9.7 W 19 28 10 15 1014.3 1013.5 0.2
25/03:00pm 27.9 25.4 12.3 38 9.1 W 17 24 9 13 1014.5 1013.7 0.2
25/02:30pm 27.6 25.5 13.5 41 8.4 WSW 17 24 9 13 1014.7 1013.9 0.2
25/02:00pm 27.6 25.4 14.3 44 8.0 SW 19 26 10 14 1014.8 1014.0 0.2
25/01:30pm 27.9 26.1 14.5 44 8.1 WSW 17 30 9 16 1014.8 1014.0 0.2
25/01:00pm 28.1 27.5 15.7 46 7.7 WSW 13 22 7 12 1015.0 1014.3 0.2
25/12:30pm 27.2 25.9 15.9 50 7.0 WSW 17 24 9 13 1015.2 1014.5 0.2
25/12:00pm 27.1 24.9 14.8 47 7.5 W 20 28 11 15 1015.4 1014.7 0.2
25/11:30am 27.8 25.2 15.8 48 7.4 WSW 24 33 13 18 1015.3 1014.6 0.2
25/11:00am 26.4 24.5 15.1 49 6.9 WSW 19 30 10 16 1015.3 1014.6 0.2
25/10:30am 25.5 23.0 15.2 53 6.3 WSW 22 32 12 17 1015.4 1014.7 0.0
25/10:00am 25.2 22.8 15.5 55 5.9 W 22 32 12 17 1015.0 1014.3 0.0
25/09:30am 25.3 23.4 16.7 59 5.4 W 22 32 12 17 1014.7 1013.9 0.0
25/09:00am 23.8 23.0 16.1 62 4.7 W 15 19 8 10 1014.2 1013.4 6.2
25/08:30am 23.3 24.2 17.5 70 3.6 NW 9 9 5 5 1013.9 1013.1 6.2
25/08:00am 22.4 23.2 18.2 77 2.6 N 11 15 6 8 1013.2 1012.4 6.2
25/07:30am 21.8 22.8 18.6 82 2.0 NW 11 19 6 10 1012.9 1012.1 6.2
25/07:00am 21.8 22.4 17.8 78 2.5 N 11 17 6 9 1012.3 1011.5 6.2
25/06:30am 21.5 21.4 17.9 80 2.3 NNW 15 20 8 11 1012.8 1012.0 6.2
25/06:00am 22.4 21.5 17.8 75 2.9 WNW 19 26 10 14 1012.8 1012.0 6.0
25/05:30am 22.6 22.9 17.9 75 3.0 WNW 13 22 7 12 1012.4 1011.6 5.8
25/05:00am 22.4 23.9 18.0 76 2.8 WSW 7 9 4 5 1012.1 1011.3 5.8
25/04:30am 22.4 23.6 18.2 77 2.6 W 9 13 5 7 1011.6 1010.9 5.8
25/04:00am 22.7 24.1 18.7 78 2.5 W 9 11 5 6 1011.5 1010.8 5.8
25/03:30am 23.2 24.1 18.5 75 3.0 NW 11 15 6 8 1011.3 1010.6 5.8
25/03:00am 22.8 26.1 20.0 84 1.8 WSW 2 11 1 6 1011.4 1010.7 5.8
25/02:30am 23.5 26.6 19.6 79 2.5 N 2 6 1 3 1011.4 1010.7 5.8
25/02:00am 23.1 26.7 19.7 81 2.2 CALM 0 0 0 0 1011.7 1011.0 5.8
25/01:30am 23.1 25.4 19.5 80 2.3 NNW 6 11 3 6 1011.7 1011.0 5.8
25/01:00am 22.9 26.3 20.1 84 1.8 NE 2 7 1 4 1012.1 1011.3 5.8
25/12:30am 23.2 27.0 20.2 83 2.0 CALM 0 6 0 3 1012.5 1011.7 5.6
25/12:00am 23.5 25.6 19.0 76 2.9 NW 6 7 3 4 1013.0 1012.2 5.6
 
Date/Time
EDT
Temp
°C
App
Temp
°C
Dew
Point
Rel
Hum
%
Delta-T
°C
Wind Press
QNH
hPa
Press
MSL
hPa
Rain
since 9 am
mm
Dir
 
Spd
km/h
Gust
km/h
Spd
kts
Gust
kts
24/11:30pm 23.3 24.9 19.2 78 2.6 NNW 9 13 5 7 1013.2 1012.4 5.6
24/11:00pm 23.1 23.0 19.5 80 2.3 W 19 24 10 13 1013.3 1012.5 5.6
24/10:30pm 23.7 24.0 18.8 74 3.1 WNW 15 24 8 13 1011.7 1011.0 5.0
24/10:00pm 25.4 26.0 18.6 66 4.4 NNE 13 19 7 10 1011.0 1010.2 4.4
24/09:30pm 24.1 26.7 19.2 74 3.2 NNW 4 11 2 6 1010.5 1009.7 4.4
24/09:00pm 25.4 26.2 18.1 64 4.7 N 11 19 6 10 1010.1 1009.3 4.2
24/08:30pm 24.8 26.3 19.0 70 3.7 NNE 9 13 5 7 1009.2 1008.4 4.2
24/08:00pm 25.3 27.1 18.2 64 4.5 N 6 9 3 5 1009.4 1008.6 4.2
24/07:30pm 24.7 25.9 18.2 67 4.1 N 9 19 5 10 1009.7 1008.9 3.8
24/07:00pm 24.1 23.2 18.1 69 3.8 NNW 20 39 11 21 1009.8 1009.0 3.6
24/06:30pm 26.7 25.8 17.7 57 5.7 WSW 19 22 10 12 1008.4 1007.6 1.4
24/06:00pm 27.8 27.3 17.9 54 6.3 ESE 17 26 9 14 1007.3 1006.5 0.6
24/05:30pm 30.1 27.1 16.9 45 8.4 SSE 28 37 15 20 1006.9 1006.1 0.2
24/05:00pm 30.7 29.8 18.1 47 8.2 N 20 32 11 17 1005.5 1004.7 0.2
24/04:30pm 29.2 28.9 19.5 56 6.4 N 20 30 11 16 1005.2 1004.4 0.2
24/04:00pm 32.0 28.0 16.7 40 9.8 N 33 43 18 23 1005.9 1005.1 0.0
24/03:30pm 29.8 24.7 16.9 45 8.2 NNE 39 63 21 34 1007.2 1006.4 0.0
24/03:00pm 33.5 28.3 14.5 31 11.8 NNE 35 54 19 29 1006.4 1005.6 0.0
24/02:59pm 33.7 28.4 14.2 30 12.0 N 35 54 19 29 1006.4 1005.6 0.0
24/02:36pm 38.8 34.0 11.8 20 16.4 WNW 28 48 15 26 1006.4 1005.6 0.0
24/02:30pm 38.8 34.8 11.8 20 16.4 WNW 24 39 13 21 1006.6 1005.8 0.0
24/02:00pm 39.6 36.0 11.7 19 17.0 WNW 22 35 12 19 1007.8 1007.0 0.0
24/01:30pm 38.1 34.7 11.2 20 16.2 NNW 20 33 11 18 1009.0 1008.2 0.0
24/01:00pm 37.7 36.3 10.9 20 16.0 NNE 9 19 5 10 1009.5 1008.7 0.0
24/12:30pm 36.3 32.5 11.2 22 15.0 NW 22 33 12 18 1009.9 1009.1 0.0
24/12:00pm 38.4 36.2 10.7 19 16.6 N 13 26 7 14 1010.1 1009.3 0.0
24/11:30am 37.9 36.6 11.1 20 16.1 NNE 9 20 5 11 1010.8 1010.0 0.0
24/11:00am 35.7 34.2 10.7 22 14.8 NNE 9 15 5 8 1011.5 1010.8 0.0
24/10:30am 35.4 34.6 11.1 23 14.4 NE 6 15 3 8 1012.0 1011.2 0.0
24/10:00am 34.3 32.3 11.4 25 13.6 SE 13 17 7 9 1012.3 1011.5 0.0
24/09:30am 33.1 32.0 13.2 30 12.1 SSE 11 19 6 10 1012.8 1012.0 0.0
24/09:00am 30.9 29.8 13.2 34 10.7 S 11 15 6 8 1012.9 1012.1 1.6
24/08:30am 31.0 30.8 13.7 34 10.5 SSE 7 11 4 6 1013.0 1012.2 1.6
24/08:00am 29.3 30.1 15.8 44 8.4 SE 6 13 3 7 1012.9 1012.1 1.6
24/07:30am 27.1 27.5 14.8 47 7.5 N 6 9 3 5 1012.9 1012.1 1.6
24/07:00am 24.3 26.5 16.6 62 4.8 CALM 0 0 0 0 1012.8 1012.0 1.6
24/06:30am 23.8 24.4 15.8 61 4.9 NE 7 11 4 6 1012.9 1012.1 1.6
24/06:00am 23.9 25.2 15.1 58 5.3 WNW 2 6 1 3 1012.7 1011.9 1.6
24/05:30am 23.0 23.0 15.3 62 4.6 WNW 9 11 5 6 1012.1 1011.3 1.6
24/05:00am 23.8 25.4 14.8 57 5.4 CALM 0 13 0 7 1011.5 1010.8 1.6
24/04:30am 23.4 23.9 14.9 59 5.1 E 6 11 3 6 1011.7 1011.0 1.6
24/04:00am 24.2 24.2 15.1 56 5.5 NNE 9 13 5 7 1011.9 1011.1 1.6
24/03:30am 23.5 23.4 15.0 59 5.1 NNW 9 13 5 7 1011.5 1010.8 1.6
24/03:00am 23.8 23.8 14.2 55 5.7 NE 7 13 4 7 1012.3 1011.5 1.6
24/02:30am 24.9 25.7 14.7 53 6.1 NNE 4 7 2 4 1012.8 1012.0 1.6
24/02:00am 24.5 24.7 15.7 58 5.4 N 9 13 5 7 1013.2 1012.4 1.6
24/01:30am 22.7 22.2 16.0 66 4.1 WNW 13 15 7 8 1013.8 1013.0 1.6
24/01:00am 23.4 24.3 16.2 64 4.4 W 6 13 3 7 1014.2 1013.4 1.6
24/12:30am 24.3 24.9 15.8 59 5.2 W 7 11 4 6 1014.3 1013.5 1.6
24/12:00am 24.6 24.8 15.8 58 5.4 SE 9 13 5 7 1014.5 1013.7 1.6
 
Date/Time
EDT
Temp
°C
App
Temp
°C
Dew
Point
Rel
Hum
%
Delta-T
°C
Wind Press
QNH
hPa
Press
MSL
hPa
Rain
since 9 am
mm
Dir
 
Spd
km/h
Gust
km/h
Spd
kts
Gust
kts
23/11:30pm 26.3 25.2 16.3 54 6.2 S 17 22 9 12 1015.0 1014.3 1.6
23/11:00pm 28.3 26.9 13.4 40 8.9 NNW 13 17 7 9 1014.1 1013.3 1.6
23/10:30pm 27.6 27.4 15.6 48 7.4 SSW 11 17 6 9 1013.8 1013.0 1.6
23/10:00pm 29.7 27.1 13.9 38 9.6 N 20 30 11 16 1012.9 1012.1 1.6
23/09:30pm 29.6 26.0 15.3 41 8.8 N 28 39 15 21 1012.2 1011.4 1.6
23/09:12pm 30.1 26.6 15.4 41 9.1 NE 28 46 15 25 1012.2 1011.4 1.4
23/09:00pm 30.1 28.5 15.0 40 9.3 NE 17 28 9 15 1011.7 1011.0 1.2
23/08:30pm 33.7 31.6 8.3 21 14.4 SE 9 17 5 9 1009.8 1009.0 0.0
23/08:00pm 33.9 31.9 7.0 19 14.9 NE 7 9 4 5 1009.1 1008.3 0.0
23/07:30pm 36.5 33.8 5.7 15 16.9 N 9 15 5 8 1008.9 1008.1 0.0
23/07:00pm 38.3 34.3 5.0 13 18.3 SW 15 20 8 11 1008.4 1007.6 0.0
23/06:30pm 39.2 33.4 4.6 12 19.0 WSW 24 33 13 18 1008.5 1007.7 0.0
23/06:09pm 38.8 31.5 4.3 12 18.8 SW 32 43 17 23 1008.2 1007.4 0.0
23/06:00pm 39.9 36.2 6.3 13 19.0 WNW 15 22 8 12 1008.0 1007.2 0.0
23/05:30pm 41.0 37.1 7.1 13 19.4 WNW 17 24 9 13 1007.6 1006.8 0.0
23/05:00pm 40.3 36.3 6.6 13 19.2 WNW 17 24 9 13 1007.7 1006.9 0.0
23/04:30pm 40.3 36.5 7.7 14 18.8 WNW 17 22 9 12 1008.1 1007.3 0.0
23/04:07pm 39.6 33.0 6.1 13 18.8 WNW 30 48 16 26 1008.3 1007.5 0.0
23/04:00pm 39.5 31.9 6.0 13 18.8 W 35 48 19 26 1008.3 1007.5 0.0
23/03:57pm 39.8 32.8 6.2 13 18.9 W 32 43 17 23 1008.3 1007.5 0.0
23/03:30pm 41.4 37.6 3.7 10 20.6 NNW 13 20 7 11 1008.4 1007.6 0.0
23/03:00pm 42.4 39.1 4.4 10 21.1 N 11 19 6 10 1008.8 1008.0 0.0
23/02:30pm 42.6 37.5 5.9 11 20.8 WNW 22 33 12 18 1009.4 1008.6 0.0
23/02:00pm 41.9 37.6 5.4 11 20.5 NNW 17 28 9 15 1009.8 1009.0 0.0
23/01:30pm 42.6 37.6 4.6 10 21.2 W 20 37 11 20 1010.2 1009.4 0.0
23/01:00pm 41.4 35.7 5.0 11 20.3 W 24 33 13 18 1010.7 1009.9 0.0
23/12:30pm 41.0 35.9 6.0 12 19.8 W 22 33 12 18 1010.9 1010.1 0.0
23/12:00pm 41.0 36.7 7.1 13 19.5 WNW 19 32 10 17 1011.3 1010.6 0.0
23/11:30am 40.3 37.4 9.6 16 18.2 NW 15 30 8 16 1011.5 1010.8 0.0
23/11:00am 40.1 35.7 7.5 14 18.7 WNW 20 24 11 13 1011.9 1011.1 0.0
23/10:30am 37.8 36.8 12.4 22 15.5 NNE 9 17 5 9 1012.0 1011.2 0.0
23/10:00am 36.3 35.8 13.7 25 14.0 ESE 9 13 5 7 1012.2 1011.4 0.0

Other Formats:

Comma delimited format used in spreadsheet applications
http://www.bom.gov.au/fwo/IDN60801/IDN60801.95758.axf

JavaScript Object Notation format (JSON) in row-major order
http://www.bom.gov.au/fwo/IDN60801/IDN60801.95758.json